createdAt,value
2018-05-15T00:00:40.740Z,99.90
2018-05-15T00:03:08.249Z,99.90
2018-05-15T00:05:36.501Z,99.90
2018-05-15T00:08:03.991Z,99.90
2018-05-15T00:10:31.518Z,99.90
2018-05-15T00:12:59.009Z,99.90
2018-05-15T00:15:27.225Z,99.90
2018-05-15T00:17:54.718Z,99.90
2018-05-15T00:20:22.220Z,99.90
2018-05-15T00:22:49.707Z,99.90
2018-05-15T00:25:17.548Z,99.90
2018-05-15T00:27:45.043Z,99.90
2018-05-15T00:30:12.520Z,99.90
2018-05-15T00:32:40.021Z,99.90
2018-05-15T00:35:08.423Z,99.90
2018-05-15T00:37:35.914Z,99.90
2018-05-15T00:40:03.393Z,99.90
2018-05-15T00:42:31.669Z,99.90
2018-05-15T00:44:59.965Z,99.90
2018-05-15T00:47:27.529Z,99.90
2018-05-15T00:49:55.011Z,99.90
2018-05-15T00:52:22.524Z,99.90
2018-05-15T00:54:50.829Z,99.90
2018-05-15T00:57:18.550Z,99.90
2018-05-15T00:59:46.040Z,99.90
2018-05-15T01:02:13.604Z,99.90
2018-05-15T01:04:41.101Z,99.90
2018-05-15T01:07:08.589Z,99.90
2018-05-15T01:09:36.077Z,99.90
2018-05-15T01:12:03.563Z,99.90
2018-05-15T01:14:31.269Z,99.90
2018-05-15T01:16:58.741Z,99.90
2018-05-15T01:19:27.008Z,99.90
2018-05-15T01:21:54.492Z,99.90
2018-05-15T01:24:22.756Z,99.90
2018-05-15T01:26:51.010Z,99.90
2018-05-15T01:29:18.521Z,99.90
2018-05-15T01:31:46.132Z,99.90
2018-05-15T01:34:13.611Z,99.90
2018-05-15T01:36:41.861Z,99.90
2018-05-15T01:39:09.338Z,99.90
2018-05-15T01:41:36.847Z,99.90
2018-05-15T01:44:04.329Z,99.90
2018-05-15T01:46:31.818Z,99.90
2018-05-15T01:48:59.336Z,99.90
2018-05-15T01:51:26.836Z,99.90
2018-05-15T01:53:54.297Z,99.90
2018-05-15T01:56:21.969Z,99.90
2018-05-15T01:58:50.304Z,99.90
2018-05-15T02:01:17.807Z,99.90
2018-05-15T02:03:46.053Z,99.90
2018-05-15T02:06:13.537Z,99.90
2018-05-15T02:08:41.845Z,99.90
2018-05-15T02:11:09.325Z,99.90
2018-05-15T02:13:36.848Z,99.90
2018-05-15T02:16:05.086Z,99.90
2018-05-15T02:18:32.745Z,99.90
2018-05-15T02:21:00.993Z,99.90
2018-05-15T02:23:28.522Z,99.90
2018-05-15T02:25:56.025Z,99.90
2018-05-15T02:28:23.524Z,99.90
2018-05-15T02:30:51.019Z,99.90
2018-05-15T02:33:18.511Z,99.90
2018-05-15T02:35:45.991Z,99.90
2018-05-15T02:38:13.474Z,99.90
2018-05-15T02:40:41.712Z,99.90
2018-05-15T02:43:09.231Z,99.90
2018-05-15T02:45:36.751Z,99.90
2018-05-15T02:48:04.251Z,99.90
2018-05-15T02:50:31.951Z,99.90
2018-05-15T02:52:59.451Z,99.90
2018-05-15T02:55:28.096Z,99.90
2018-05-15T02:57:55.587Z,99.90
2018-05-15T03:00:23.838Z,99.90
2018-05-15T03:02:51.312Z,99.90
2018-05-15T03:05:19.020Z,99.90
2018-05-15T03:07:46.498Z,99.90
2018-05-15T03:10:14.032Z,99.90
2018-05-15T03:12:41.543Z,99.90
2018-05-15T03:15:09.046Z,99.90
2018-05-15T03:17:36.531Z,99.90
2018-05-15T03:20:04.019Z,99.90
2018-05-15T03:22:32.380Z,99.90
2018-05-15T03:24:59.898Z,99.90
2018-05-15T03:27:28.136Z,99.90
2018-05-15T03:29:55.665Z,99.90
2018-05-15T03:32:23.565Z,99.90
2018-05-15T03:34:51.074Z,99.90
2018-05-15T03:37:18.577Z,99.90
2018-05-15T03:39:46.142Z,99.90
2018-05-15T03:42:13.775Z,99.90
2018-05-15T03:44:41.281Z,99.90
2018-05-15T03:47:08.801Z,99.90
2018-05-15T03:49:36.310Z,99.90
2018-05-15T03:52:04.914Z,99.90
2018-05-15T03:54:32.529Z,99.90
2018-05-15T03:57:00.808Z,99.90
2018-05-15T03:59:28.299Z,99.90
2018-05-15T04:02:08.479Z,99.90
2018-05-15T04:04:47.954Z,99.90
2018-05-15T04:07:27.320Z,99.90
2018-05-15T04:09:55.561Z,99.90
2018-05-15T04:12:24.142Z,99.90
2018-05-15T04:14:53.258Z,99.90
2018-05-15T04:17:20.760Z,99.90
2018-05-15T04:19:48.268Z,99.90
2018-05-15T04:22:15.755Z,99.90
2018-05-15T04:24:43.244Z,99.90
2018-05-15T04:27:10.753Z,99.90
2018-05-15T04:29:38.353Z,99.90
2018-05-15T04:32:05.816Z,99.90
2018-05-15T04:34:33.332Z,99.90
2018-05-15T04:37:01.052Z,99.90
2018-05-15T04:39:28.573Z,99.90
2018-05-15T04:41:56.829Z,99.90
2018-05-15T04:44:24.388Z,99.90
2018-05-15T04:46:51.890Z,99.90
2018-05-15T04:49:19.563Z,99.90
2018-05-15T04:51:47.836Z,99.90
2018-05-15T04:54:16.103Z,99.90
2018-05-15T04:56:44.463Z,99.90
2018-05-15T04:59:12.665Z,99.90
2018-05-15T05:01:41.093Z,99.90
2018-05-15T05:04:08.584Z,99.90
2018-05-15T05:06:36.120Z,99.90
2018-05-15T05:09:03.628Z,99.90
2018-05-15T05:11:31.913Z,99.90
2018-05-15T05:13:59.391Z,99.90
2018-05-15T05:16:26.903Z,99.90
2018-05-15T05:18:55.322Z,99.90
2018-05-15T05:21:22.816Z,99.90
2018-05-15T05:23:50.351Z,99.90
2018-05-15T05:26:17.820Z,99.90
2018-05-15T05:28:45.338Z,99.90
2018-05-15T05:31:12.851Z,99.90
2018-05-15T05:33:40.348Z,99.90
2018-05-15T05:36:07.817Z,99.90
2018-05-15T05:38:35.289Z,99.90
2018-05-15T05:41:02.777Z,99.90
2018-05-15T05:43:30.245Z,99.90
2018-05-15T05:45:57.718Z,99.90
2018-05-15T05:48:25.234Z,99.90
2018-05-15T05:50:53.162Z,99.90
2018-05-15T05:53:21.502Z,99.90
2018-05-15T05:55:48.998Z,99.90
2018-05-15T05:58:17.259Z,99.90
2018-05-15T06:00:44.731Z,99.90
2018-05-15T06:03:13.131Z,99.90
2018-05-15T06:05:41.363Z,99.90
2018-05-15T06:08:09.860Z,99.90
2018-05-15T06:10:37.355Z,99.90
2018-05-15T06:13:04.846Z,99.90
2018-05-15T06:15:32.950Z,99.90
2018-05-15T06:18:00.485Z,99.90
2018-05-15T06:20:28.386Z,99.90
2018-05-15T06:22:56.065Z,99.90
2018-05-15T06:25:25.038Z,99.90
2018-05-15T06:27:52.620Z,99.90
2018-05-15T06:30:21.046Z,99.90
2018-05-15T06:32:48.609Z,99.90
2018-05-15T06:35:16.096Z,99.90
2018-05-15T06:37:44.407Z,99.90
2018-05-15T06:40:12.709Z,99.90
2018-05-15T06:42:40.269Z,99.90
2018-05-15T06:45:07.732Z,99.90
2018-05-15T06:47:37.165Z,99.90
2018-05-15T06:50:04.648Z,99.90
2018-05-15T06:52:33.005Z,99.90
2018-05-15T06:55:00.548Z,99.90
2018-05-15T06:57:28.293Z,99.90
2018-05-15T06:59:55.802Z,99.90
2018-05-15T07:02:23.305Z,99.90
2018-05-15T07:04:50.780Z,99.90
2018-05-15T07:07:18.297Z,99.90
2018-05-15T07:09:45.818Z,99.90
2018-05-15T07:12:13.309Z,99.90
2018-05-15T07:14:41.556Z,99.90
2018-05-15T07:17:09.052Z,99.70
2018-05-15T07:19:37.539Z,94.80
2018-05-15T07:22:05.803Z,94.90
2018-05-15T07:24:33.812Z,95.10
2018-05-15T07:27:01.366Z,94.20
2018-05-15T07:29:29.314Z,92.90
2018-05-15T07:31:57.562Z,88.40
2018-05-15T07:34:25.150Z,88.60
2018-05-15T07:36:53.381Z,90.70
2018-05-15T07:39:20.874Z,90.70
2018-05-15T07:41:49.115Z,81.30
2018-05-15T07:44:16.585Z,81.40
2018-05-15T07:46:44.848Z,74.30
2018-05-15T07:49:12.324Z,74.40
2018-05-15T07:51:39.829Z,72.50
2018-05-15T07:54:07.350Z,67.90
2018-05-15T07:56:36.354Z,67.60
2018-05-15T07:59:04.230Z,67.50
2018-05-15T08:01:32.503Z,67.60
2018-05-15T08:03:59.979Z,67.60
2018-05-15T08:06:27.499Z,71.10
2018-05-15T08:08:54.982Z,68.70
2018-05-15T08:11:24.570Z,67.70
2018-05-15T08:13:52.841Z,67.20
2018-05-15T08:16:20.754Z,67.20
2018-05-15T08:18:48.233Z,68.30
2018-05-15T08:21:15.727Z,67.10
2018-05-15T08:23:43.220Z,62.60
2018-05-15T08:26:10.793Z,60.20
2018-05-15T08:28:39.076Z,61.70
2018-05-15T08:31:06.820Z,61.80
2018-05-15T08:33:35.605Z,62.20
2018-05-15T08:36:03.929Z,60.90
2018-05-15T08:38:31.432Z,60.70
2018-05-15T08:40:58.997Z,56.20
2018-05-15T08:43:26.506Z,58.10
2018-05-15T08:45:53.985Z,56.70
2018-05-15T08:48:21.469Z,53.90
2018-05-15T08:50:48.985Z,56.00
2018-05-15T08:53:16.471Z,55.40
2018-05-15T08:55:43.938Z,54.90
2018-05-15T08:58:11.617Z,51.50
2018-05-15T09:00:39.280Z,51.20
2018-05-15T09:03:07.547Z,46.40
2018-05-15T09:05:35.850Z,46.70
2018-05-15T09:08:04.077Z,49.30
2018-05-15T09:10:31.718Z,49.30
2018-05-15T09:12:59.204Z,49.50
2018-05-15T09:15:27.186Z,47.30
2018-05-15T09:17:54.727Z,46.00
2018-05-15T09:20:22.205Z,46.20
2018-05-15T09:22:49.667Z,44.00
2018-05-15T09:25:17.148Z,44.20
2018-05-15T09:27:45.391Z,44.40
2018-05-15T09:30:12.972Z,44.40
2018-05-15T09:32:40.452Z,43.50
2018-05-15T09:35:08.789Z,42.40
2018-05-15T09:37:36.266Z,42.40
2018-05-15T09:40:05.267Z,41.20
2018-05-15T09:42:32.743Z,41.20
2018-05-15T09:45:01.382Z,43.30
2018-05-15T09:47:29.140Z,43.30
2018-05-15T09:49:56.857Z,43.00
2018-05-15T09:52:25.276Z,41.90
2018-05-15T09:54:53.434Z,43.10
2018-05-15T09:57:21.433Z,43.00
2018-05-15T09:59:48.941Z,41.80
2018-05-15T10:02:17.187Z,42.00
2018-05-15T10:04:44.749Z,42.00
2018-05-15T10:07:12.994Z,40.80
2018-05-15T10:09:40.485Z,40.60
2018-05-15T10:12:08.024Z,41.00
2018-05-15T10:14:36.072Z,41.70
2018-05-15T10:17:03.775Z,40.20
2018-05-15T10:19:32.027Z,38.60
2018-05-15T10:21:59.519Z,38.60
2018-05-15T10:24:26.980Z,41.00
2018-05-15T10:26:54.492Z,38.60
2018-05-15T10:29:23.130Z,40.70
2018-05-15T10:31:51.518Z,42.60
2018-05-15T10:34:19.000Z,42.20
2018-05-15T10:36:47.577Z,40.50
2018-05-15T10:39:16.257Z,40.60
2018-05-15T10:41:43.905Z,40.50
2018-05-15T10:44:11.392Z,40.00
2018-05-15T10:46:38.903Z,39.00
2018-05-15T10:49:06.378Z,40.60
2018-05-15T10:51:34.581Z,42.30
2018-05-15T10:54:02.872Z,39.70
2018-05-15T10:56:30.371Z,39.60
2018-05-15T10:58:57.831Z,39.50
2018-05-15T11:01:25.857Z,40.30
2018-05-15T11:03:53.517Z,41.70
2018-05-15T11:06:22.533Z,40.10
2018-05-15T11:08:50.209Z,40.20
2018-05-15T11:11:17.721Z,41.50
2018-05-15T11:13:46.236Z,42.90
2018-05-15T11:16:13.801Z,42.90
2018-05-15T11:18:41.367Z,44.80
2018-05-15T11:21:20.964Z,42.40
2018-05-15T11:24:01.749Z,42.40
2018-05-15T11:26:30.379Z,42.30
2018-05-15T11:28:58.801Z,44.50
2018-05-15T11:31:27.523Z,44.20
2018-05-15T11:33:55.053Z,43.80
2018-05-15T11:36:23.321Z,44.50
2018-05-15T11:38:50.834Z,44.50
2018-05-15T11:41:18.448Z,44.40
2018-05-15T11:43:46.700Z,45.00
2018-05-15T11:46:14.190Z,45.00
2018-05-15T11:48:48.339Z,45.60
2018-05-15T11:51:26.663Z,44.90
2018-05-15T11:53:54.567Z,44.90
2018-05-15T11:56:22.223Z,45.80
2018-05-15T11:58:49.916Z,45.10
2018-05-15T12:01:17.407Z,44.10
2018-05-15T12:03:44.925Z,46.20
2018-05-15T12:06:12.407Z,44.10
2018-05-15T12:08:39.870Z,44.90
2018-05-15T12:11:07.389Z,45.80
2018-05-15T12:13:35.140Z,46.90
2018-05-15T12:16:02.704Z,48.50
2018-05-15T12:18:31.551Z,48.60
2018-05-15T12:20:59.030Z,48.60
2018-05-15T12:23:26.682Z,48.80
2018-05-15T12:25:54.240Z,49.50
2018-05-15T12:28:21.929Z,50.00
2018-05-15T12:30:49.458Z,49.60
2018-05-15T12:33:16.957Z,49.80
2018-05-15T12:35:44.478Z,50.00
2018-05-15T12:38:11.941Z,49.30
2018-05-15T12:40:39.418Z,48.80
2018-05-15T12:43:06.897Z,49.30
2018-05-15T12:45:34.385Z,50.60
2018-05-15T12:48:02.724Z,49.90
2018-05-15T12:50:30.184Z,49.80
2018-05-15T12:52:57.657Z,48.10
2018-05-15T12:55:25.148Z,48.40
2018-05-15T12:57:53.404Z,46.30
2018-05-15T13:00:20.895Z,46.30
2018-05-15T13:02:48.571Z,47.20
2018-05-15T13:05:16.163Z,44.20
2018-05-15T13:07:43.643Z,44.60
2018-05-15T13:10:11.135Z,44.20
2018-05-15T13:12:38.619Z,44.90
2018-05-15T13:15:06.121Z,45.50
2018-05-15T13:17:34.401Z,47.50
2018-05-15T13:20:01.877Z,47.40
2018-05-15T13:22:30.140Z,48.20
2018-05-15T13:24:57.642Z,48.20
2018-05-15T13:27:25.110Z,48.70
2018-05-15T13:29:52.642Z,49.70
2018-05-15T13:32:20.080Z,50.60
2018-05-15T13:34:48.329Z,46.50
2018-05-15T13:37:15.813Z,46.90
2018-05-15T13:39:43.318Z,47.10
2018-05-15T13:42:10.969Z,47.40
2018-05-15T13:44:38.486Z,47.40
2018-05-15T13:47:05.981Z,47.30
2018-05-15T13:49:33.476Z,47.60
2018-05-15T13:52:01.326Z,46.60
2018-05-15T13:54:28.877Z,47.60
2018-05-15T13:56:56.380Z,47.20
2018-05-15T13:59:24.669Z,44.60
2018-05-15T14:01:52.913Z,43.90
2018-05-15T14:04:20.394Z,43.90
2018-05-15T14:06:47.880Z,43.30
2018-05-15T14:09:16.125Z,45.10
2018-05-15T14:11:43.658Z,45.10
2018-05-15T14:14:11.183Z,46.40
2018-05-15T14:16:38.783Z,45.90
2018-05-15T14:19:06.262Z,44.50
2018-05-15T14:21:33.765Z,45.70
2018-05-15T14:24:02.048Z,47.00
2018-05-15T14:26:30.335Z,46.80
2018-05-15T14:28:57.848Z,46.70
2018-05-15T14:31:25.383Z,45.80
2018-05-15T14:33:52.878Z,47.60
2018-05-15T14:36:20.368Z,47.30
2018-05-15T14:38:47.839Z,48.60
2018-05-15T14:41:15.368Z,48.90
2018-05-15T14:43:43.618Z,49.70
2018-05-15T14:46:11.101Z,49.60
2018-05-15T14:48:39.695Z,51.20
2018-05-15T14:54:09.260Z,50.40
2018-05-15T14:56:37.223Z,50.40
2018-05-15T14:59:04.753Z,50.60
2018-05-15T15:01:33.723Z,50.70
2018-05-15T15:04:01.964Z,51.50
2018-05-15T15:06:29.666Z,51.60
2018-05-15T15:08:57.926Z,51.90
2018-05-15T15:11:25.397Z,51.90
2018-05-15T15:13:52.897Z,51.80
2018-05-15T15:16:20.387Z,51.70
2018-05-15T15:18:47.866Z,51.40
2018-05-15T15:21:15.498Z,50.90
2018-05-15T15:23:43.006Z,50.80
2018-05-15T15:26:11.140Z,50.80
2018-05-15T15:28:38.629Z,51.80
2018-05-15T15:31:06.239Z,52.20
2018-05-15T15:33:33.720Z,52.20
2018-05-15T15:36:01.208Z,53.40
2018-05-15T15:38:28.686Z,53.60
2018-05-15T15:40:57.013Z,53.40
2018-05-15T15:43:24.550Z,53.30
2018-05-15T15:45:52.090Z,54.00
2018-05-15T15:48:20.426Z,53.00
2018-05-15T15:50:47.902Z,52.90
2018-05-15T15:53:15.495Z,53.50
2018-05-15T15:55:42.989Z,52.90
2018-05-15T15:58:10.482Z,52.50
2018-05-15T16:00:37.968Z,52.20
2018-05-15T16:03:06.263Z,52.20
2018-05-15T16:05:34.188Z,52.20
2018-05-15T16:08:03.212Z,51.50
2018-05-15T16:10:30.706Z,51.50
2018-05-15T16:12:58.198Z,52.40
2018-05-15T16:15:26.163Z,52.90
2018-05-15T16:17:53.694Z,52.50
2018-05-15T16:20:22.793Z,52.70
2018-05-15T16:22:50.508Z,52.90
2018-05-15T16:25:21.086Z,54.00
2018-05-15T16:27:48.723Z,54.60
2018-05-15T16:30:16.239Z,55.00
2018-05-15T16:32:45.325Z,53.70
2018-05-15T16:35:12.726Z,53.70
2018-05-15T16:37:41.054Z,54.30
2018-05-15T16:40:08.713Z,54.30
2018-05-15T16:42:36.283Z,54.70
2018-05-15T16:45:03.764Z,55.60
2018-05-15T16:47:31.342Z,55.20
2018-05-15T16:49:59.495Z,55.80
2018-05-15T16:52:27.031Z,55.70
2018-05-15T16:54:54.505Z,56.70
2018-05-15T16:57:21.980Z,56.60
2018-05-15T16:59:49.464Z,55.00
2018-05-15T17:02:17.074Z,56.20
2018-05-15T17:04:44.718Z,56.60
2018-05-15T17:07:12.718Z,55.60
2018-05-15T17:09:40.998Z,54.70
2018-05-15T17:12:09.290Z,55.10
2018-05-15T17:14:36.816Z,55.10
2018-05-15T17:17:04.528Z,55.30
2018-05-15T17:19:32.753Z,55.10
2018-05-15T17:22:00.389Z,54.90
2018-05-15T17:24:27.924Z,56.00
2018-05-15T17:26:55.425Z,57.00
2018-05-15T17:29:22.897Z,58.00
2018-05-15T17:31:51.079Z,57.50
2018-05-15T17:34:19.392Z,59.40
2018-05-15T17:36:46.902Z,59.40
2018-05-15T17:39:14.374Z,58.70
2018-05-15T17:41:42.649Z,59.50
2018-05-15T17:44:10.144Z,59.50
2018-05-15T17:46:38.403Z,59.70
2018-05-15T17:49:05.893Z,59.70
2018-05-15T17:51:34.132Z,59.30
2018-05-15T17:54:01.653Z,59.30
2018-05-15T17:56:29.343Z,59.30
2018-05-15T17:58:57.084Z,59.00
2018-05-15T18:01:24.573Z,59.80
2018-05-15T18:03:52.064Z,61.10
2018-05-15T18:06:19.542Z,62.00
2018-05-15T18:08:47.863Z,62.80
2018-05-15T18:11:15.365Z,62.80
2018-05-15T18:13:43.707Z,64.70
2018-05-15T18:16:12.452Z,65.90
2018-05-15T18:18:40.056Z,65.30
2018-05-15T18:21:08.002Z,66.10
2018-05-15T18:23:36.215Z,66.50
2018-05-15T18:26:03.810Z,67.70
2018-05-15T18:28:32.054Z,68.20
2018-05-15T18:30:59.584Z,68.10
2018-05-15T18:33:27.070Z,68.30
2018-05-15T18:35:55.051Z,69.00
2018-05-15T18:38:22.566Z,68.60
2018-05-15T18:40:50.289Z,68.60
2018-05-15T18:43:20.390Z,69.70
2018-05-15T18:45:47.985Z,68.70
2018-05-15T18:48:15.811Z,69.60
2018-05-15T18:50:43.926Z,69.70
2018-05-15T18:53:11.442Z,69.70
2018-05-15T18:55:39.242Z,70.20
2018-05-15T18:58:07.502Z,71.10
2018-05-15T19:00:35.102Z,71.10
2018-05-15T19:03:02.577Z,70.60
2018-05-15T19:05:30.882Z,71.80
2018-05-15T19:07:58.463Z,71.80
2018-05-15T19:10:26.259Z,71.10
2018-05-15T19:12:54.548Z,69.40
2018-05-15T19:15:22.534Z,69.40
2018-05-15T19:17:50.038Z,69.80
2018-05-15T19:20:17.689Z,70.30
2018-05-15T19:22:45.204Z,70.00
2018-05-15T19:25:12.716Z,69.90
2018-05-15T19:27:40.294Z,70.80
2018-05-15T19:30:07.856Z,71.40
2018-05-15T19:32:39.056Z,73.30
2018-05-15T19:35:07.456Z,72.60
2018-05-15T19:37:34.918Z,73.60
2018-05-15T19:40:08.208Z,74.00
2018-05-15T19:42:35.683Z,74.80
2018-05-15T19:45:03.333Z,75.30
2018-05-15T19:47:30.721Z,76.50
2018-05-15T19:49:58.837Z,76.10
2018-05-15T19:52:26.325Z,76.10
2018-05-15T19:54:53.813Z,76.00
2018-05-15T19:57:21.335Z,75.60
2018-05-15T19:59:48.808Z,75.20
2018-05-15T20:02:17.043Z,75.30
2018-05-15T20:04:44.536Z,75.30
2018-05-15T20:07:12.002Z,75.80
2018-05-15T20:09:39.512Z,76.00
2018-05-15T20:12:07.027Z,76.90
2018-05-15T20:14:34.766Z,77.40
2018-05-15T20:17:02.254Z,77.60
2018-05-15T20:19:29.798Z,78.20
2018-05-15T20:21:57.348Z,79.30
2018-05-15T20:24:24.842Z,81.60
2018-05-15T20:26:52.356Z,82.60
2018-05-15T20:29:19.859Z,86.30
2018-05-15T20:31:47.459Z,90.00
2018-05-15T20:34:14.989Z,92.90
2018-05-15T20:36:42.996Z,96.20
2018-05-15T20:39:10.486Z,98.50
2018-05-15T20:41:38.157Z,99.90
2018-05-15T20:44:05.718Z,99.90
2018-05-15T20:46:33.260Z,99.90
2018-05-15T20:49:00.785Z,99.90
2018-05-15T20:51:28.288Z,99.90
2018-05-15T20:53:55.768Z,99.90
2018-05-15T20:56:23.298Z,99.90
2018-05-15T20:58:50.790Z,99.90
2018-05-15T21:01:18.350Z,99.90
2018-05-15T21:03:45.861Z,99.90
2018-05-15T21:06:13.413Z,99.90
2018-05-15T21:08:41.529Z,99.90
2018-05-15T21:11:09.994Z,99.90
2018-05-15T21:13:37.656Z,99.90
2018-05-15T21:16:05.128Z,99.90
2018-05-15T21:18:32.699Z,99.90
2018-05-15T21:21:00.212Z,99.90
2018-05-15T21:23:27.722Z,99.90
2018-05-15T21:25:55.251Z,99.90
2018-05-15T21:28:22.758Z,99.90
2018-05-15T21:30:51.047Z,99.90
2018-05-15T21:33:18.578Z,99.90
2018-05-15T21:35:46.082Z,99.90
2018-05-15T21:38:13.556Z,99.90
2018-05-15T21:40:41.048Z,99.90
2018-05-15T21:43:08.589Z,99.90
2018-05-15T21:45:36.132Z,99.90
2018-05-15T21:48:03.609Z,99.90
2018-05-15T21:50:31.107Z,99.90
2018-05-15T21:52:58.657Z,99.90
2018-05-15T21:55:26.190Z,99.90
2018-05-15T21:57:53.748Z,99.90
2018-05-15T22:00:21.243Z,99.90
2018-05-15T22:02:48.735Z,99.90
2018-05-15T22:05:16.201Z,99.90
2018-05-15T22:07:43.696Z,99.90
2018-05-15T22:10:11.175Z,99.90
2018-05-15T22:12:51.029Z,99.90
2018-05-15T22:15:30.384Z,99.90
2018-05-15T22:18:10.579Z,99.90
2018-05-15T22:20:50.134Z,99.90
2018-05-15T22:23:17.177Z,99.90
2018-05-15T22:25:44.714Z,99.90
2018-05-15T22:28:12.189Z,99.90
2018-05-15T22:30:39.735Z,99.90
2018-05-15T22:33:07.249Z,99.90
2018-05-15T22:35:34.738Z,99.90
2018-05-15T22:38:02.240Z,99.90
2018-05-15T22:40:29.777Z,99.90
2018-05-15T22:42:57.265Z,99.90
2018-05-15T22:45:25.133Z,99.90
2018-05-15T22:47:52.645Z,99.90
2018-05-15T22:50:20.504Z,99.90
2018-05-15T22:52:48.782Z,99.90
2018-05-15T22:55:17.067Z,99.90
2018-05-15T22:57:44.539Z,99.90
2018-05-15T23:00:12.048Z,99.90
2018-05-15T23:02:40.180Z,99.90
2018-05-15T23:05:07.703Z,99.90
2018-05-15T23:07:35.967Z,99.90
2018-05-15T23:10:03.477Z,99.90
2018-05-15T23:12:30.943Z,99.90
2018-05-15T23:14:58.592Z,99.90
2018-05-15T23:17:26.102Z,99.90
2018-05-15T23:19:53.589Z,99.90
2018-05-15T23:22:32.999Z,99.90
2018-05-15T23:25:01.250Z,99.90
2018-05-15T23:27:28.720Z,99.90
2018-05-15T23:29:56.252Z,99.90
2018-05-15T23:32:23.769Z,99.90
2018-05-15T23:34:51.271Z,99.90
2018-05-15T23:37:18.822Z,99.90
2018-05-15T23:39:46.281Z,99.90
2018-05-15T23:42:13.775Z,99.90
2018-05-15T23:44:41.243Z,99.90
2018-05-15T23:47:08.732Z,99.90
2018-05-15T23:49:36.963Z,99.90
2018-05-15T23:52:04.471Z,99.90
2018-05-15T23:54:32.706Z,99.90
2018-05-15T23:57:00.344Z,99.90
2018-05-15T23:59:27.817Z,99.90
